sensor_id;sensor_type;location;lat;lon;timestamp;pressure;altitude;pressure_sealevel;temperature;humidity
84724;BME280;74944;52.322;16.918;2024-03-02T00:00:37;100162.75;;;11.00;97.50
84724;BME280;74944;52.322;16.918;2024-03-02T00:03:24;100155.94;;;10.98;97.49
84724;BME280;74944;52.322;16.918;2024-03-02T00:05:50;100154.84;;;10.99;97.08
84724;BME280;74944;52.322;16.918;2024-03-02T00:08:23;100154.34;;;10.97;97.28
84724;BME280;74944;52.322;16.918;2024-03-02T00:10:50;100157.09;;;10.97;97.49
84724;BME280;74944;52.322;16.918;2024-03-02T00:13:16;100151.09;;;10.95;97.80
84724;BME280;74944;52.322;16.918;2024-03-02T00:15:47;100151.59;;;10.97;97.76
84724;BME280;74944;52.322;16.918;2024-03-02T00:18:27;100144.75;;;10.95;98.07
84724;BME280;74944;52.322;16.918;2024-03-02T00:20:56;100151.59;;;10.97;97.54
84724;BME280;74944;52.322;16.918;2024-03-02T00:23:23;100150.75;;;10.97;97.67
84724;BME280;74944;52.322;16.918;2024-03-02T00:25:52;100147.19;;;10.96;97.45
84724;BME280;74944;52.322;16.918;2024-03-02T00:28:25;100145.91;;;10.94;97.92
84724;BME280;74944;52.322;16.918;2024-03-02T00:33:32;100140.41;;;10.94;97.74
84724;BME280;74944;52.322;16.918;2024-03-02T00:35:58;100150.59;;;10.93;97.86
84724;BME280;74944;52.322;16.918;2024-03-02T00:38:26;100142.50;;;10.97;97.97
84724;BME280;74944;52.322;16.918;2024-03-02T00:40:52;100147.84;;;10.93;98.04
84724;BME280;74944;52.322;16.918;2024-03-02T00:43:43;100145.09;;;10.93;97.79
84724;BME280;74944;52.322;16.918;2024-03-02T00:46:15;100144.59;;;10.91;98.28
84724;BME280;74944;52.322;16.918;2024-03-02T00:48:48;100140.19;;;10.90;97.93
84724;BME280;74944;52.322;16.918;2024-03-02T00:51:14;100146.50;;;10.91;98.09
84724;BME280;74944;52.322;16.918;2024-03-02T00:53:39;100130.84;;;10.91;97.50
84724;BME280;74944;52.322;16.918;2024-03-02T00:56:09;100140.41;;;10.94;97.76
84724;BME280;74944;52.322;16.918;2024-03-02T00:58:35;100143.75;;;10.91;97.77
84724;BME280;74944;52.322;16.918;2024-03-02T01:01:00;100133.59;;;10.91;97.94
84724;BME280;74944;52.322;16.918;2024-03-02T01:03:26;100134.09;;;10.93;97.40
84724;BME280;74944;52.322;16.918;2024-03-02T01:05:52;100133.25;;;10.93;97.35
84724;BME280;74944;52.322;16.918;2024-03-02T01:08:18;100138.75;;;10.93;97.43
84724;BME280;74944;52.322;16.918;2024-03-02T01:10:44;100139.41;;;10.90;97.50
84724;BME280;74944;52.322;16.918;2024-03-02T01:13:09;100133.41;;;10.88;97.85
84724;BME280;74944;52.322;16.918;2024-03-02T01:15:35;100132.75;;;10.91;97.39
84724;BME280;74944;52.322;16.918;2024-03-02T01:18:01;100125.34;;;10.91;97.04
84724;BME280;74944;52.322;16.918;2024-03-02T01:20:27;100135.00;;;10.89;97.34
84724;BME280;74944;52.322;16.918;2024-03-02T01:22:52;100130.16;;;10.86;97.51
84724;BME280;74944;52.322;16.918;2024-03-02T01:25:19;100124.94;;;10.84;96.96
84724;BME280;74944;52.322;16.918;2024-03-02T01:27:44;100132.09;;;10.85;97.49
84724;BME280;74944;52.322;16.918;2024-03-02T01:30:10;100132.69;;;10.82;97.45
84724;BME280;74944;52.322;16.918;2024-03-02T01:32:38;100131.09;;;10.81;97.38
84724;BME280;74944;52.322;16.918;2024-03-02T01:35:05;100132.53;;;10.79;97.48
84724;BME280;74944;52.322;16.918;2024-03-02T01:37:32;100128.84;;;10.83;96.88
84724;BME280;74944;52.322;16.918;2024-03-02T01:39:58;100122.34;;;10.79;97.41
84724;BME280;74944;52.322;16.918;2024-03-02T01:42:24;100116.03;;;10.79;97.28
84724;BME280;74944;52.322;16.918;2024-03-02T01:44:51;100113.59;;;10.77;97.45
84724;BME280;74944;52.322;16.918;2024-03-02T01:47:16;100117.66;;;10.80;96.85
84724;BME280;74944;52.322;16.918;2024-03-02T01:49:42;100120.41;;;10.80;97.06
84724;BME280;74944;52.322;16.918;2024-03-02T01:52:08;100107.66;;;10.84;96.83
84724;BME280;74944;52.322;16.918;2024-03-02T01:54:34;100111.34;;;10.79;96.60
84724;BME280;74944;52.322;16.918;2024-03-02T01:57:00;100113.19;;;10.70;96.94
84724;BME280;74944;52.322;16.918;2024-03-02T01:59:26;100109.94;;;10.68;96.84
84724;BME280;74944;52.322;16.918;2024-03-02T02:01:52;100107.63;;;10.62;97.10
84724;BME280;74944;52.322;16.918;2024-03-02T02:04:18;100112.00;;;10.63;97.09
84724;BME280;74944;52.322;16.918;2024-03-02T02:06:47;100107.13;;;10.60;97.04
84724;BME280;74944;52.322;16.918;2024-03-02T02:09:12;100111.31;;;10.58;96.95
84724;BME280;74944;52.322;16.918;2024-03-02T02:11:38;100118.53;;;10.54;97.36
84724;BME280;74944;52.322;16.918;2024-03-02T02:14:06;100116.59;;;10.54;96.58
84724;BME280;74944;52.322;16.918;2024-03-02T02:16:31;100107.97;;;10.47;97.02
84724;BME280;74944;52.322;16.918;2024-03-02T02:18:57;100112.34;;;10.48;97.45
84724;BME280;74944;52.322;16.918;2024-03-02T02:21:23;100112.47;;;10.43;97.85
84724;BME280;74944;52.322;16.918;2024-03-02T02:23:51;100118.97;;;10.47;97.22
84724;BME280;74944;52.322;16.918;2024-03-02T02:26:16;100118.47;;;10.45;97.46
84724;BME280;74944;52.322;16.918;2024-03-02T02:28:42;100118.97;;;10.47;97.15
84724;BME280;74944;52.322;16.918;2024-03-02T02:31:15;100112.16;;;10.45;97.45
84724;BME280;74944;52.322;16.918;2024-03-02T02:33:41;100120.69;;;10.43;97.35
84724;BME280;74944;52.322;16.918;2024-03-02T02:36:07;100118.59;;;10.40;97.33
84724;BME280;74944;52.322;16.918;2024-03-02T02:38:35;100113.41;;;10.39;97.58
84724;BME280;74944;52.322;16.918;2024-03-02T02:41:03;100107.09;;;10.38;97.43
84724;BME280;74944;52.322;16.918;2024-03-02T02:43:29;100113.91;;;10.41;97.18
84724;BME280;74944;52.322;16.918;2024-03-02T02:48:30;100112.59;;;10.38;96.94
84724;BME280;74944;52.322;16.918;2024-03-02T02:50:55;100110.94;;;10.37;96.71
84724;BME280;74944;52.322;16.918;2024-03-02T02:53:21;100114.50;;;10.38;96.97
84724;BME280;74944;52.322;16.918;2024-03-02T02:55:47;100115.34;;;10.38;96.48
84724;BME280;74944;52.322;16.918;2024-03-02T02:58:13;100120.31;;;10.36;96.49
84724;BME280;74944;52.322;16.918;2024-03-02T03:00:40;100116.34;;;10.29;96.74
84724;BME280;74944;52.322;16.918;2024-03-02T03:03:05;100118.59;;;10.27;96.64
84724;BME280;74944;52.322;16.918;2024-03-02T03:05:32;100118.81;;;10.30;96.79
84724;BME280;74944;52.322;16.918;2024-03-02T03:07:57;100116.16;;;10.26;97.08
84724;BME280;74944;52.322;16.918;2024-03-02T03:10:23;100106.81;;;10.27;96.63
84724;BME280;74944;52.322;16.918;2024-03-02T03:12:51;100109.56;;;10.27;96.65
84724;BME280;74944;52.322;16.918;2024-03-02T03:15:17;100107.75;;;10.22;96.97
84724;BME280;74944;52.322;16.918;2024-03-02T03:17:42;100097.56;;;10.23;96.81
84724;BME280;74944;52.322;16.918;2024-03-02T03:20:08;100099.28;;;10.19;96.71
84724;BME280;74944;52.322;16.918;2024-03-02T03:22:38;100098.16;;;10.20;96.83
84724;BME280;74944;52.322;16.918;2024-03-02T03:25:04;100109.66;;;10.22;96.88
84724;BME280;74944;52.322;16.918;2024-03-02T03:27:30;100112.72;;;10.20;96.54
84724;BME280;74944;52.322;16.918;2024-03-02T03:29:56;100105.81;;;10.23;96.41
84724;BME280;74944;52.322;16.918;2024-03-02T03:32:22;100097.34;;;10.19;96.39
84724;BME280;74944;52.322;16.918;2024-03-02T03:34:48;100100.41;;;10.18;96.68
84724;BME280;74944;52.322;16.918;2024-03-02T03:37:14;100099.28;;;10.19;96.61
84724;BME280;74944;52.322;16.918;2024-03-02T03:39:39;100103.97;;;10.18;96.32
84724;BME280;74944;52.322;16.918;2024-03-02T03:42:05;100104.56;;;10.15;97.11
84724;BME280;74944;52.322;16.918;2024-03-02T03:44:31;100102.63;;;10.16;96.60
84724;BME280;74944;52.322;16.918;2024-03-02T03:46:56;100103.78;;;10.15;96.58
84724;BME280;74944;52.322;16.918;2024-03-02T03:49:23;100100.53;;;10.13;96.18
84724;BME280;74944;52.322;16.918;2024-03-02T03:51:49;100101.31;;;10.13;96.70
84724;BME280;74944;52.322;16.918;2024-03-02T03:54:15;100095.31;;;10.11;96.38
84724;BME280;74944;52.322;16.918;2024-03-02T03:56:40;100094.81;;;10.09;95.88
84724;BME280;74944;52.322;16.918;2024-03-02T03:59:06;100080.59;;;10.07;96.39
84724;BME280;74944;52.322;16.918;2024-03-02T04:01:31;100086.59;;;10.09;95.88
84724;BME280;74944;52.322;16.918;2024-03-02T04:03:57;100090.16;;;10.10;96.03
84724;BME280;74944;52.322;16.918;2024-03-02T04:06:23;100087.50;;;10.05;96.73
84724;BME280;74944;52.322;16.918;2024-03-02T04:08:49;100094.03;;;10.09;95.84
84724;BME280;74944;52.322;16.918;2024-03-02T04:11:14;100097.06;;;10.07;96.31
84724;BME280;74944;52.322;16.918;2024-03-02T04:13:40;100093.63;;;10.02;96.45
84724;BME280;74944;52.322;16.918;2024-03-02T04:16:06;100094.44;;;10.02;96.06
84724;BME280;74944;52.322;16.918;2024-03-02T04:18:31;100100.13;;;10.06;95.71
84724;BME280;74944;52.322;16.918;2024-03-02T04:21:00;100097.69;;;10.04;95.94
84724;BME280;74944;52.322;16.918;2024-03-02T04:23:26;100104.78;;;10.05;96.00
84724;BME280;74944;52.322;16.918;2024-03-02T04:25:52;100110.78;;;10.07;96.00
84724;BME280;74944;52.322;16.918;2024-03-02T04:28:17;100114.97;;;10.05;95.73
84724;BME280;74944;52.322;16.918;2024-03-02T04:30:43;100115.47;;;10.07;95.75
84724;BME280;74944;52.322;16.918;2024-03-02T04:33:09;100115.47;;;10.07;95.49
84724;BME280;74944;52.322;16.918;2024-03-02T04:35:36;100111.63;;;10.08;95.39
84724;BME280;74944;52.322;16.918;2024-03-02T04:38:02;100115.75;;;10.05;95.36
84724;BME280;74944;52.322;16.918;2024-03-02T04:40:27;100115.59;;;10.02;94.89
84724;BME280;74944;52.322;16.918;2024-03-02T04:42:53;100122.69;;;10.03;95.01
84724;BME280;74944;52.322;16.918;2024-03-02T04:45:19;100118.00;;;10.03;95.78
84724;BME280;74944;52.322;16.918;2024-03-02T04:47:44;100118.00;;;10.03;95.53
84724;BME280;74944;52.322;16.918;2024-03-02T04:50:10;100122.38;;;10.04;95.50
84724;BME280;74944;52.322;16.918;2024-03-02T04:52:36;100127.06;;;10.04;95.30
84724;BME280;74944;52.322;16.918;2024-03-02T04:55:02;100126.06;;;10.00;95.48
84724;BME280;74944;52.322;16.918;2024-03-02T04:57:47;100131.03;;;9.98;95.02
84724;BME280;74944;52.322;16.918;2024-03-02T05:00:13;100129.38;;;9.97;95.25
84724;BME280;74944;52.322;16.918;2024-03-02T05:02:39;100130.69;;;9.99;95.39
84724;BME280;74944;52.322;16.918;2024-03-02T05:05:05;100139.78;;;10.00;95.57
84724;BME280;74944;52.322;16.918;2024-03-02T05:07:30;100134.06;;;9.96;96.09
84724;BME280;74944;52.322;16.918;2024-03-02T05:09:56;100135.69;;;9.97;95.62
84724;BME280;74944;52.322;16.918;2024-03-02T05:12:21;100138.75;;;9.96;95.73
84724;BME280;74944;52.322;16.918;2024-03-02T05:15:06;100142.59;;;9.95;95.39
84724;BME280;74944;52.322;16.918;2024-03-02T05:17:32;100135.38;;;9.99;95.68
84724;BME280;74944;52.322;16.918;2024-03-02T05:19:58;100137.63;;;9.97;95.55
84724;BME280;74944;52.322;16.918;2024-03-02T05:22:24;100143.91;;;9.97;95.56
84724;BME280;74944;52.322;16.918;2024-03-02T05:24:50;100143.09;;;9.97;95.60
84724;BME280;74944;52.322;16.918;2024-03-02T05:27:15;100145.34;;;9.95;95.35
84724;BME280;74944;52.322;16.918;2024-03-02T05:29:41;100144.84;;;9.93;95.60
84724;BME280;74944;52.322;16.918;2024-03-02T05:32:06;100146.78;;;9.93;95.57
84724;BME280;74944;52.322;16.918;2024-03-02T05:34:32;100147.28;;;9.94;95.85
84724;BME280;74944;52.322;16.918;2024-03-02T05:37:01;100150.94;;;9.90;95.30
84724;BME280;74944;52.322;16.918;2024-03-02T05:39:26;100144.63;;;9.90;95.87
84724;BME280;74944;52.322;16.918;2024-03-02T05:41:52;100141.66;;;9.86;95.27
84724;BME280;74944;52.322;16.918;2024-03-02T05:44:18;100133.09;;;9.74;95.92
84724;BME280;74944;52.322;16.918;2024-03-02T05:46:45;100141.44;;;9.69;95.67
84724;BME280;74944;52.322;16.918;2024-03-02T05:49:11;100140.00;;;9.58;95.95
84724;BME280;74944;52.322;16.918;2024-03-02T05:51:37;100144.78;;;9.53;96.53
84724;BME280;74944;52.322;16.918;2024-03-02T05:54:03;100158.56;;;9.48;96.63
84724;BME280;74944;52.322;16.918;2024-03-02T05:56:28;100151.81;;;9.41;96.52
84724;BME280;74944;52.322;16.918;2024-03-02T05:58:54;100149.47;;;9.34;97.74
84724;BME280;74944;52.322;16.918;2024-03-02T06:01:42;100153.88;;;9.35;97.61
84724;BME280;74944;52.322;16.918;2024-03-02T06:04:09;100155.88;;;9.30;97.73
84724;BME280;74944;52.322;16.918;2024-03-02T06:06:34;100160.84;;;9.28;97.94
84724;BME280;74944;52.322;16.918;2024-03-02T06:09:01;100170.47;;;9.25;97.40
84724;BME280;74944;52.322;16.918;2024-03-02T06:11:28;100175.16;;;9.25;98.02
84724;BME280;74944;52.322;16.918;2024-03-02T06:13:53;100171.06;;;9.22;97.99
84724;BME280;74944;52.322;16.918;2024-03-02T06:16:19;100176.34;;;9.19;98.64
84724;BME280;74944;52.322;16.918;2024-03-02T06:18:45;100171.97;;;9.18;98.28
84724;BME280;74944;52.322;16.918;2024-03-02T06:21:10;100177.97;;;9.20;98.10
84724;BME280;74944;52.322;16.918;2024-03-02T06:23:36;100174.03;;;9.26;98.16
84724;BME280;74944;52.322;16.918;2024-03-02T06:26:01;100180.53;;;9.30;98.35
84724;BME280;74944;52.322;16.918;2024-03-02T06:28:28;100188.97;;;9.33;98.26
84724;BME280;74944;52.322;16.918;2024-03-02T06:30:54;100198.66;;;9.44;97.89
84724;BME280;74944;52.322;16.918;2024-03-02T06:33:19;100191.44;;;9.48;97.22
84724;BME280;74944;52.322;16.918;2024-03-02T06:35:45;100192.19;;;9.54;97.64
84724;BME280;74944;52.322;16.918;2024-03-02T06:38:11;100191.50;;;9.61;97.14
84724;BME280;74944;52.322;16.918;2024-03-02T06:40:37;100187.84;;;9.66;96.59
84724;BME280;74944;52.322;16.918;2024-03-02T06:43:06;100192.44;;;9.70;96.85
84724;BME280;74944;52.322;16.918;2024-03-02T06:45:31;100190.41;;;9.76;96.68
84724;BME280;74944;52.322;16.918;2024-03-02T06:48:00;100180.66;;;9.83;96.66
84724;BME280;74944;52.322;16.918;2024-03-02T06:50:25;100178.94;;;9.87;96.03
84724;BME280;74944;52.322;16.918;2024-03-02T06:52:51;100188.72;;;9.93;96.70
84724;BME280;74944;52.322;16.918;2024-03-02T06:55:17;100182.84;;;9.99;95.38
84724;BME280;74944;52.322;16.918;2024-03-02T06:57:42;100181.13;;;10.03;95.12
84724;BME280;74944;52.322;16.918;2024-03-02T07:00:08;100184.69;;;10.04;94.80
84724;BME280;74944;52.322;16.918;2024-03-02T07:02:35;100183.97;;;10.12;94.46
84724;BME280;74944;52.322;16.918;2024-03-02T07:05:02;100186.13;;;10.15;94.13
84724;BME280;74944;52.322;16.918;2024-03-02T07:07:28;100188.75;;;10.20;94.25
84724;BME280;74944;52.322;16.918;2024-03-02T07:09:53;100186.22;;;10.23;94.21
84724;BME280;74944;52.322;16.918;2024-03-02T07:12:19;100190.06;;;10.35;93.79
84724;BME280;74944;52.322;16.918;2024-03-02T07:14:44;100191.06;;;10.39;93.75
84724;BME280;74944;52.322;16.918;2024-03-02T07:17:22;100201.06;;;10.49;92.92
84724;BME280;74944;52.322;16.918;2024-03-02T07:19:48;100195.13;;;10.55;92.37
84724;BME280;74944;52.322;16.918;2024-03-02T07:22:14;100198.09;;;10.59;92.58
84724;BME280;74944;52.322;16.918;2024-03-02T07:24:41;100197.97;;;10.64;92.29
84724;BME280;74944;52.322;16.918;2024-03-02T07:27:10;100193.69;;;10.71;91.92
84724;BME280;74944;52.322;16.918;2024-03-02T07:29:36;100206.38;;;10.80;91.63
84724;BME280;74944;52.322;16.918;2024-03-02T07:32:02;100208.41;;;10.88;91.00
84724;BME280;74944;52.322;16.918;2024-03-02T07:34:27;100204.53;;;10.89;90.73
84724;BME280;74944;52.322;16.918;2024-03-02T07:36:53;100202.81;;;10.93;90.55
84724;BME280;74944;52.322;16.918;2024-03-02T07:39:19;100201.44;;;11.04;90.20
84724;BME280;74944;52.322;16.918;2024-03-02T07:41:45;100198.75;;;11.12;90.20
84724;BME280;74944;52.322;16.918;2024-03-02T07:44:11;100206.91;;;11.17;89.90
84724;BME280;74944;52.322;16.918;2024-03-02T07:46:43;100206.47;;;11.24;89.12
84724;BME280;74944;52.322;16.918;2024-03-02T07:49:09;100207.56;;;11.23;90.25
84724;BME280;74944;52.322;16.918;2024-03-02T07:51:35;100210.53;;;11.26;89.72
84724;BME280;74944;52.322;16.918;2024-03-02T07:54:01;100207.53;;;11.36;88.89
84724;BME280;74944;52.322;16.918;2024-03-02T07:56:27;100208.19;;;11.41;89.18
84724;BME280;74944;52.322;16.918;2024-03-02T07:58:54;100207.50;;;11.49;89.25
84724;BME280;74944;52.322;16.918;2024-03-02T08:01:20;100205.28;;;11.60;88.26
84724;BME280;74944;52.322;16.918;2024-03-02T08:03:45;100208.63;;;11.70;88.28
84724;BME280;74944;52.322;16.918;2024-03-02T08:06:16;100203.97;;;11.79;88.40
84724;BME280;74944;52.322;16.918;2024-03-02T08:08:42;100205.50;;;11.93;87.10
84724;BME280;74944;52.322;16.918;2024-03-02T08:11:08;100201.53;;;12.07;86.32
84724;BME280;74944;52.322;16.918;2024-03-02T08:13:34;100212.41;;;12.12;86.73
84724;BME280;74944;52.322;16.918;2024-03-02T08:16:01;100206.31;;;12.24;85.87
84724;BME280;74944;52.322;16.918;2024-03-02T08:18:29;100210.25;;;12.31;85.88
84724;BME280;74944;52.322;16.918;2024-03-02T08:20:55;100205.75;;;12.43;85.22
84724;BME280;74944;52.322;16.918;2024-03-02T08:23:20;100208.22;;;12.53;84.01
84724;BME280;74944;52.322;16.918;2024-03-02T08:25:46;100210.03;;;12.66;84.53
84724;BME280;74944;52.322;16.918;2024-03-02T08:28:12;100213.59;;;12.75;83.98
84724;BME280;74944;52.322;16.918;2024-03-02T08:30:38;100207.31;;;12.83;84.23
84724;BME280;74944;52.322;16.918;2024-03-02T08:33:04;100209.28;;;12.91;83.49
84724;BME280;74944;52.322;16.918;2024-03-02T08:35:29;100212.84;;;13.00;83.16
84724;BME280;74944;52.322;16.918;2024-03-02T08:37:57;100207.69;;;13.07;81.79
84724;BME280;74944;52.322;16.918;2024-03-02T08:40:23;100204.75;;;13.12;82.64
84724;BME280;74944;52.322;16.918;2024-03-02T08:42:49;100203.31;;;13.14;82.34
84724;BME280;74944;52.322;16.918;2024-03-02T08:45:15;100205.59;;;13.20;81.80
84724;BME280;74944;52.322;16.918;2024-03-02T08:47:43;100200.56;;;13.22;81.79
84724;BME280;74944;52.322;16.918;2024-03-02T08:50:09;100202.03;;;13.28;81.63
84724;BME280;74944;52.322;16.918;2024-03-02T08:52:34;100202.34;;;13.35;80.59
84724;BME280;74944;52.322;16.918;2024-03-02T08:55:01;100203.47;;;13.43;81.99
84724;BME280;74944;52.322;16.918;2024-03-02T08:57:26;100209.47;;;13.53;81.20
84724;BME280;74944;52.322;16.918;2024-03-02T08:59:52;100211.06;;;13.62;80.82
84724;BME280;74944;52.322;16.918;2024-03-02T09:02:18;100206.50;;;13.75;80.12
84724;BME280;74944;52.322;16.918;2024-03-02T09:04:43;100197.75;;;13.81;79.32
84724;BME280;74944;52.322;16.918;2024-03-02T09:07:09;100198.53;;;13.90;79.42
84724;BME280;74944;52.322;16.918;2024-03-02T09:09:35;100201.56;;;13.97;78.58
84724;BME280;74944;52.322;16.918;2024-03-02T09:12:00;100205.97;;;13.98;78.38
84724;BME280;74944;52.322;16.918;2024-03-02T09:14:26;100210.53;;;14.02;78.49
84724;BME280;74944;52.322;16.918;2024-03-02T09:16:52;100207.25;;;14.09;78.58
84724;BME280;74944;52.322;16.918;2024-03-02T09:19:18;100210.66;;;14.14;77.47
84724;BME280;74944;52.322;16.918;2024-03-02T09:21:44;100206.75;;;14.23;77.37
84724;BME280;74944;52.322;16.918;2024-03-02T09:24:09;100197.94;;;14.30;76.82
84724;BME280;74944;52.322;16.918;2024-03-02T09:26:35;100201.94;;;14.41;77.72
84724;BME280;74944;52.322;16.918;2024-03-02T09:29:01;100200.56;;;14.55;76.62
84724;BME280;74944;52.322;16.918;2024-03-02T09:31:26;100199.38;;;14.64;75.79
84724;BME280;74944;52.322;16.918;2024-03-02T09:33:52;100199.00;;;14.74;76.57
84724;BME280;74944;52.322;16.918;2024-03-02T09:36:18;100206.91;;;14.84;74.90
84724;BME280;74944;52.322;16.918;2024-03-02T09:38:45;100203.41;;;14.95;74.93
84724;BME280;74944;52.322;16.918;2024-03-02T09:41:10;100193.63;;;14.98;73.89
84724;BME280;74944;52.322;16.918;2024-03-02T09:43:37;100196.69;;;15.05;74.60
84724;BME280;74944;52.322;16.918;2024-03-02T09:46:03;100194.22;;;15.12;74.04
84724;BME280;74944;52.322;16.918;2024-03-02T09:48:29;100199.34;;;15.22;74.52
84724;BME280;74944;52.322;16.918;2024-03-02T09:50:55;100197.47;;;15.34;73.77
84724;BME280;74944;52.322;16.918;2024-03-02T09:53:22;100196.81;;;15.49;73.24
84724;BME280;74944;52.322;16.918;2024-03-02T09:55:48;100202.41;;;15.61;73.77
84724;BME280;74944;52.322;16.918;2024-03-02T09:58:15;100202.47;;;15.72;71.60
84724;BME280;74944;52.322;16.918;2024-03-02T10:00:41;100198.53;;;15.73;71.15
84724;BME280;74944;52.322;16.918;2024-03-02T10:03:12;100204.53;;;15.64;71.08
84724;BME280;74944;52.322;16.918;2024-03-02T10:05:38;100206.09;;;15.53;71.83
84724;BME280;74944;52.322;16.918;2024-03-02T10:08:04;100217.03;;;15.49;72.84
84724;BME280;74944;52.322;16.918;2024-03-02T10:10:39;100220.16;;;15.48;72.26
84724;BME280;74944;52.322;16.918;2024-03-02T10:13:07;100210.81;;;15.52;73.47
84724;BME280;74944;52.322;16.918;2024-03-02T10:15:34;100212.22;;;15.58;72.35
84724;BME280;74944;52.322;16.918;2024-03-02T10:17:59;100209.03;;;15.68;72.62
84724;BME280;74944;52.322;16.918;2024-03-02T10:20:26;100207.13;;;15.80;72.81
84724;BME280;74944;52.322;16.918;2024-03-02T10:23:13;100202.06;;;15.82;71.20
84724;BME280;74944;52.322;16.918;2024-03-02T10:25:38;100200.47;;;15.93;72.35
84724;BME280;74944;52.322;16.918;2024-03-02T10:28:05;100193.69;;;16.02;71.96
84724;BME280;74944;52.322;16.918;2024-03-02T10:30:31;100196.47;;;16.14;71.14
84724;BME280;74944;52.322;16.918;2024-03-02T10:32:57;100188.44;;;16.33;70.35
84724;BME280;74944;52.322;16.918;2024-03-02T10:35:23;100192.84;;;16.46;69.39
84724;BME280;74944;52.322;16.918;2024-03-02T10:37:49;100193.56;;;16.43;68.07
84724;BME280;74944;52.322;16.918;2024-03-02T10:40:15;100189.94;;;16.54;67.92
84724;BME280;74944;52.322;16.918;2024-03-02T10:42:42;100183.38;;;16.59;67.57
84724;BME280;74944;52.322;16.918;2024-03-02T10:45:09;100188.09;;;16.58;68.52
84724;BME280;74944;52.322;16.918;2024-03-02T10:47:38;100188.56;;;16.60;67.31
84724;BME280;74944;52.322;16.918;2024-03-02T10:50:05;100181.03;;;16.61;67.91
84724;BME280;74944;52.322;16.918;2024-03-02T10:52:37;100182.69;;;16.73;67.79
84724;BME280;74944;52.322;16.918;2024-03-02T10:55:05;100169.25;;;16.87;67.82
84724;BME280;74944;52.322;16.918;2024-03-02T10:57:53;100169.13;;;16.96;67.48
84724;BME280;74944;52.322;16.918;2024-03-02T11:00:20;100169.66;;;17.13;65.44
84724;BME280;74944;52.322;16.918;2024-03-02T11:02:56;100175.47;;;17.20;65.55
84724;BME280;74944;52.322;16.918;2024-03-02T11:05:27;100168.97;;;17.28;65.36
84724;BME280;74944;52.322;16.918;2024-03-02T11:08:00;100163.13;;;17.45;65.08
84724;BME280;74944;52.322;16.918;2024-03-02T11:10:29;100170.03;;;17.50;63.54
84724;BME280;74944;52.322;16.918;2024-03-02T11:13:00;100157.09;;;17.43;64.71
84724;BME280;74944;52.322;16.918;2024-03-02T11:15:27;100160.00;;;17.46;64.76
84724;BME280;74944;52.322;16.918;2024-03-02T11:17:54;100167.00;;;17.55;63.85
84724;BME280;74944;52.322;16.918;2024-03-02T11:20:20;100164.47;;;17.50;64.41
84724;BME280;74944;52.322;16.918;2024-03-02T11:22:47;100166.44;;;17.50;63.99
84724;BME280;74944;52.322;16.918;2024-03-02T11:25:26;100167.53;;;17.34;65.53
84724;BME280;74944;52.322;16.918;2024-03-02T11:33:00;100166.41;;;17.11;65.69
84724;BME280;74944;52.322;16.918;2024-03-02T11:35:26;100172.22;;;17.06;66.33
84724;BME280;74944;52.322;16.918;2024-03-02T11:37:57;100158.81;;;17.08;67.43
84724;BME280;74944;52.322;16.918;2024-03-02T11:40:30;100165.88;;;16.94;66.64
84724;BME280;74944;52.322;16.918;2024-03-02T11:42:56;100157.09;;;16.92;67.32
84724;BME280;74944;52.322;16.918;2024-03-02T11:45:26;100153.06;;;16.89;67.33
84724;BME280;74944;52.322;16.918;2024-03-02T11:47:57;100163.13;;;16.82;68.02
84724;BME280;74944;52.322;16.918;2024-03-02T11:50:29;100163.59;;;16.72;68.03
84724;BME280;74944;52.322;16.918;2024-03-02T11:52:58;100157.47;;;16.67;68.26
84724;BME280;74944;52.322;16.918;2024-03-02T11:55:25;100154.94;;;16.73;68.39
84724;BME280;74944;52.322;16.918;2024-03-02T11:57:54;100163.94;;;16.71;69.38
84724;BME280;74944;52.322;16.918;2024-03-02T12:00:20;100169.34;;;16.79;68.64
84724;BME280;74944;52.322;16.918;2024-03-02T12:02:48;100168.94;;;16.77;68.91
84724;BME280;74944;52.322;16.918;2024-03-02T12:05:24;100166.03;;;16.85;68.20
84724;BME280;74944;52.322;16.918;2024-03-02T12:07:58;100163.34;;;16.89;68.77
84724;BME280;74944;52.322;16.918;2024-03-02T12:10:25;100164.25;;;16.93;68.32
84724;BME280;74944;52.322;16.918;2024-03-02T12:13:01;100163.44;;;17.04;67.87
84724;BME280;74944;52.322;16.918;2024-03-02T12:15:34;100163.56;;;17.08;67.86
84724;BME280;74944;52.322;16.918;2024-03-02T12:18:06;100158.69;;;17.16;67.50
84724;BME280;74944;52.322;16.918;2024-03-02T12:20:32;100162.59;;;17.15;67.38
84724;BME280;74944;52.322;16.918;2024-03-02T12:23:00;100158.09;;;17.23;67.08
84724;BME280;74944;52.322;16.918;2024-03-02T12:25:28;100154.97;;;17.24;67.02
84724;BME280;74944;52.322;16.918;2024-03-02T12:28:00;100155.31;;;17.23;67.79
84724;BME280;74944;52.322;16.918;2024-03-02T12:30:30;100157.41;;;17.26;67.23
84724;BME280;74944;52.322;16.918;2024-03-02T12:32:56;100160.41;;;17.21;66.97
84724;BME280;74944;52.322;16.918;2024-03-02T12:35:24;100157.03;;;17.27;67.52
84724;BME280;74944;52.322;16.918;2024-03-02T12:37:52;100162.44;;;17.36;67.26
84724;BME280;74944;52.322;16.918;2024-03-02T12:40:18;100158.91;;;17.50;66.84
84724;BME280;74944;52.322;16.918;2024-03-02T12:42:46;100154.34;;;17.58;65.05
84724;BME280;74944;52.322;16.918;2024-03-02T12:45:13;100143.91;;;17.67;64.07
84724;BME280;74944;52.322;16.918;2024-03-02T12:47:40;100148.28;;;17.68;64.35
84724;BME280;74944;52.322;16.918;2024-03-02T12:50:08;100148.09;;;17.61;64.52